Time;durP1;ratioP1;P1;durP2;ratioP2;P2;SDS_P1;SDS_P2;PMS_P1;PMS_P2;Temp;Humidity;BMP_temperature;BMP_pressure;BME280_temperature;BME280_humidity;BME280_pressure;Samples;Min_cycle;Max_cycle;Signal;HPM_P1;HPM_P2
2022/10/14 00:01:16;;;;;;;42.70;24.60;;;;;;;7.48;86.95;98747.77;106580;1310;22273;-70
2022/10/14 00:03:58;;;;;;;39.80;21.40;;;;;;;7.46;86.82;98748.46;106685;1284;138329;-71
2022/10/14 00:06:28;;;;;;;34.10;20.90;;;;;;;7.38;86.00;98749.71;106582;1302;22284;-70
2022/10/14 00:08:58;;;;;;;34.10;20.00;;;;;;;7.28;85.51;98745.19;106617;1295;22401;-70
2022/10/14 00:11:26;;;;;;;;;;;;;;;7.23;85.90;98739.70;106560;1310;138816;-70
2022/10/14 00:13:55;;;;;;;38.10;20.30;;;;;;;7.19;85.89;98741.73;106553;1310;22231;-70
2022/10/14 00:16:34;;;;;;;37.10;21.90;;;;;;;7.12;85.79;98741.30;106350;1295;138468;-70
2022/10/14 00:19:04;;;;;;;36.40;21.20;;;;;;;7.01;85.53;98742.45;106193;1312;22200;-70
2022/10/14 00:21:32;;;;;;;36.50;22.30;;;;;;;6.92;85.52;98741.34;106505;1290;22737;-70
2022/10/14 00:23:59;;;;;;;37.40;21.70;;;;;;;6.89;86.12;98747.06;106383;1303;138141;-70
2022/10/14 00:26:29;;;;;;;38.60;22.00;;;;;;;6.88;86.27;98753.98;106563;1310;22248;-71
2022/10/14 00:28:58;;;;;;;41.60;22.10;;;;;;;6.89;86.42;98760.55;106430;1310;138393;-70
2022/10/14 00:31:26;;;;;;;40.40;20.40;;;;;;;6.90;86.74;98759.30;106639;1310;22272;-71
2022/10/14 00:33:54;;;;;;;35.20;21.00;;;;;;;6.90;86.74;98748.64;106529;1310;138178;-70
2022/10/14 00:36:23;;;;;;;39.60;22.60;;;;;;;6.93;86.64;98746.72;106848;1294;22146;-70
2022/10/14 00:38:52;;;;;;;44.30;23.40;;;;;;;6.96;86.93;98746.54;106579;1310;22094;-70
2022/10/14 00:41:20;;;;;;;41.00;23.30;;;;;;;7.00;87.05;98744.02;106438;1310;138391;-70
2022/10/14 00:44:13;;;;;;;41.10;23.70;;;;;;;7.03;87.37;98741.30;106572;1310;23109;-71
2022/10/14 00:46:43;;;;;;;45.00;25.80;;;;;;;7.08;87.71;98740.50;105594;1304;138264;-70
2022/10/14 00:49:19;;;;;;;43.50;24.50;;;;;;;7.12;88.08;98739.67;105797;1318;22256;-70
2022/10/14 00:51:57;;;;;;;42.50;25.30;;;;;;;7.17;88.22;98732.16;105671;1310;138300;-71
2022/10/14 00:54:30;;;;;;;41.30;24.90;;;;;;;7.20;88.19;98727.46;105648;1318;22933;-70
2022/10/14 00:56:58;;;;;;;44.20;25.80;;;;;;;7.25;88.16;98725.77;105676;1310;22260;-70
2022/10/14 00:59:25;;;;;;;39.00;24.00;;;;;;;7.28;88.01;98724.55;106009;1296;138201;-70
2022/10/14 01:01:52;;;;;;;47.10;26.60;;;;;;;7.32;88.34;98727.65;106131;1311;22232;-70
2022/10/14 01:04:19;;;;;;;49.40;25.50;;;;;;;7.34;88.27;98723.98;106023;1287;141207;-70
2022/10/14 01:07:02;;;;;;;44.80;25.70;;;;;;;7.36;88.44;98723.84;105647;1310;22170;-70
2022/10/14 01:09:35;;;;;;;44.90;27.10;;;;;;;7.38;88.42;98722.83;105782;1310;22309;-70
2022/10/14 01:12:15;;;;;;;43.30;25.70;;;;;;;7.41;88.46;98719.97;105689;1318;138041;-70
2022/10/14 01:14:42;;;;;;;51.40;26.70;;;;;;;7.46;88.62;98723.73;105799;1318;22191;-70
2022/10/14 01:17:18;;;;;;;52.10;26.10;;;;;;;7.49;88.72;98719.42;105522;1307;138545;-70
2022/10/14 01:20:04;;;;;;;46.40;26.40;;;;;;;7.54;88.44;98713.94;105676;1318;23300;-70
2022/10/14 01:22:38;;;;;;;47.10;25.80;;;;;;;7.57;88.55;98711.65;105655;1318;138439;-70
2022/10/14 01:25:17;;;;;;;49.00;27.90;;;;;;;7.59;88.56;98711.64;106376;1310;22190;-70
2022/10/14 01:28:09;;;;;;;42.80;25.70;;;;;;;7.63;88.42;98709.90;106269;1297;138275;-70
2022/10/14 01:30:44;;;;;;;46.90;25.90;;;;;;;7.60;88.53;98712.92;106624;1304;22111;-70
2022/10/14 01:33:11;;;;;;;39.20;23.40;;;;;;;7.59;88.45;98710.44;106484;1306;22142;-70
2022/10/14 01:35:56;;;;;;;38.60;23.10;;;;;;;7.59;88.28;98705.97;106414;1310;138618;-70
2022/10/14 01:38:31;;;;;;;45.00;24.40;;;;;;;7.59;88.35;98706.27;106457;1296;22195;-70
2022/10/14 01:41:16;;;;;;;42.10;23.90;;;;;;;7.62;88.53;98704.50;106316;1304;138279;-70
2022/10/14 01:43:46;;;;;;;41.50;25.40;;;;;;;7.66;88.61;98703.17;106835;1297;22153;-70
2022/10/14 01:46:20;;;;;;;40.10;23.50;;;;;;;7.67;88.29;98702.29;106641;1297;138606;-70
2022/10/14 01:48:52;;;;;;;44.10;24.70;;;;;;;7.66;88.27;98707.30;106811;1296;22172;-70
2022/10/14 01:51:25;;;;;;;43.30;25.30;;;;;;;7.64;88.36;98703.23;106567;1310;22925;-70
2022/10/14 01:54:03;;;;;;;40.90;23.90;;;;;;;7.64;88.43;98699.97;106482;1308;138703;-70
2022/10/14 01:56:32;;;;;;;43.50;24.20;;;;;;;7.65;88.61;98695.38;106609;1310;22295;-70
2022/10/14 01:59:00;;;;;;;;;;;;;;;7.67;88.91;98698.50;106343;1294;138299;-70
2022/10/14 02:01:27;;;;;;;41.80;23.30;;;;;;;7.68;88.75;98700.70;106438;1312;22224;-70
2022/10/14 02:03:57;;;;;;;41.80;25.30;;;;;;;7.68;88.95;98699.89;106403;1310;138411;-70
2022/10/14 02:06:31;;;;;;;44.80;24.90;;;;;;;7.71;88.92;98703.70;106462;1312;23016;-70
2022/10/14 02:09:01;;;;;;;43.00;24.90;;;;;;;7.74;88.98;98694.34;106857;1293;22971;-70
2022/10/14 02:11:44;;;;;;;48.00;26.50;;;;;;;7.76;89.01;98690.50;106535;1310;138199;-70
2022/10/14 02:14:37;;;;;;;44.90;25.80;;;;;;;7.78;89.12;98689.65;106835;1300;22168;-70
2022/10/14 02:17:18;;;;;;;47.60;24.60;;;;;;;7.82;88.80;98689.54;106423;1304;138288;-70
2022/10/14 02:19:57;;;;;;;41.90;23.90;;;;;;;7.84;88.87;98683.63;106603;1299;22125;-70
2022/10/14 02:22:30;;;;;;;44.80;26.10;;;;;;;7.87;89.02;98682.23;106658;1303;138533;-70
2022/10/14 02:25:06;;;;;;;48.60;26.50;;;;;;;7.90;88.71;98676.16;106504;1310;22214;-70
2022/10/14 02:27:34;;;;;;;47.20;27.00;;;;;;;7.93;88.83;98672.34;106494;1302;22167;-70
2022/10/14 02:30:03;;;;;;;48.30;27.20;;;;;;;7.95;88.59;98669.96;106766;1302;138075;-70
2022/10/14 02:32:31;;;;;;;47.90;26.80;;;;;;;7.97;88.61;98669.58;106642;1310;22323;-70
2022/10/14 02:34:59;;;;;;;49.70;27.50;;;;;;;7.99;88.52;98667.86;106400;1305;138319;-70
2022/10/14 02:37:29;;;;;;;51.60;27.80;;;;;;;8.01;88.34;98665.30;106824;1295;21971;-70
2022/10/14 02:40:06;;;;;;;51.10;28.00;;;;;;;8.03;88.36;98663.73;106355;1299;138523;-70
2022/10/14 02:42:33;;;;;;;50.00;27.10;;;;;;;8.06;88.46;98660.36;106429;1310;22214;-70
2022/10/14 02:45:05;;;;;;;45.10;24.90;;;;;;;8.07;88.47;98661.05;106507;1310;22113;-70
2022/10/14 02:47:32;;;;;;;46.90;28.30;;;;;;;8.08;88.17;98662.92;106666;1298;138272;-71
2022/10/14 02:49:59;;;;;;;44.20;26.50;;;;;;;8.08;88.02;98664.02;106463;1307;22217;-70
2022/10/14 02:52:26;;;;;;;45.20;26.80;;;;;;;8.09;88.27;98663.17;106408;1310;138374;-70
2022/10/14 02:54:53;;;;;;;44.70;26.00;;;;;;;8.08;88.08;98662.30;106469;1310;22167;-71
2022/10/14 02:57:20;;;;;;;51.50;26.80;;;;;;;8.08;88.09;98660.38;106556;1310;23002;-70
2022/10/14 02:59:48;;;;;;;46.90;26.50;;;;;;;8.07;87.99;98659.85;106363;1299;138259;-70
2022/10/14 03:02:15;;;;;;;49.30;26.00;;;;;;;8.06;87.96;98663.95;106618;1310;22683;-70
2022/10/14 03:04:42;;;;;;;45.80;25.30;;;;;;;8.06;88.33;98665.79;106489;1309;138391;-70
2022/10/14 03:07:10;;;;;;;44.50;25.60;;;;;;;8.06;87.98;98660.31;106524;1304;22060;-70
2022/10/14 03:09:41;;;;;;;45.20;27.00;;;;;;;8.06;88.04;98659.73;106481;1298;22981;-70
2022/10/14 03:12:08;;;;;;;46.50;25.60;;;;;;;8.06;88.05;98659.45;106696;1303;22223;-70
2022/10/14 03:14:35;;;;;;;48.80;27.70;;;;;;;8.05;87.83;98662.20;106515;1312;22156;-70
2022/10/14 03:17:03;;;;;;;42.20;26.70;;;;;;;8.06;87.83;98660.20;106401;1311;138331;-70
2022/10/14 03:19:35;;;;;;;53.50;27.30;;;;;;;8.06;87.86;98663.83;106694;1288;22057;-70
2022/10/14 03:22:02;;;;;;;52.20;27.90;;;;;;;8.03;87.77;98660.05;106397;1297;138549;-70
2022/10/14 03:24:29;;;;;;;54.70;29.50;;;;;;;8.04;88.18;98655.97;106539;1310;22255;-70
2022/10/14 03:27:32;;;;;;;46.20;26.60;;;;;;;8.05;88.28;98658.54;106742;1286;22766;-71
2022/10/14 03:30:03;;;;;;;53.60;29.80;;;;;;;8.05;88.13;98657.79;106633;1297;138188;-70
2022/10/14 03:32:31;;;;;;;52.20;28.60;;;;;;;8.06;88.18;98658.03;106574;1310;22113;-70
2022/10/14 03:35:18;;;;;;;49.50;27.50;;;;;;;8.08;88.34;98655.91;106316;1304;138339;-70
2022/10/14 03:37:46;;;;;;;49.90;28.30;;;;;;;8.09;88.40;98654.07;106526;1310;22161;-70
2022/10/14 03:40:15;;;;;;;48.40;28.20;;;;;;;8.08;88.09;98652.58;106314;1298;138496;-71
2022/10/14 03:42:42;;;;;;;45.70;27.70;;;;;;;8.06;87.75;98652.52;106604;1305;22164;-70
2022/10/14 03:45:09;;;;;;;45.30;26.50;;;;;;;8.04;88.02;98646.52;106494;1310;22891;-70
2022/10/14 03:47:39;;;;;;;53.50;28.70;;;;;;;8.05;88.20;98643.35;106688;1290;138358;-70
2022/10/14 03:50:06;;;;;;;47.10;27.20;;;;;;;8.06;88.38;98638.78;106496;1298;22957;-71
2022/10/14 03:52:39;;;;;;;50.20;28.80;;;;;;;8.09;88.49;98639.52;106726;1293;138252;-70
2022/10/14 03:55:11;;;;;;;51.60;28.40;;;;;;;8.11;88.32;98637.40;106512;1312;22177;-70
2022/10/14 03:57:39;;;;;;;49.60;27.40;;;;;;;8.12;88.38;98637.39;106602;1287;22251;-70
2022/10/14 04:00:08;;;;;;;49.40;27.80;;;;;;;8.13;88.45;98633.42;106393;1288;138184;-70
2022/10/14 04:02:41;;;;;;;53.80;28.00;;;;;;;8.16;88.50;98631.17;106616;1310;22082;-70
2022/10/14 04:05:14;;;;;;;52.60;28.60;;;;;;;8.17;88.66;98629.20;106373;1311;138213;-70
2022/10/14 04:07:42;;;;;;;52.60;29.50;;;;;;;8.19;88.55;98631.26;106786;1303;22294;-70
2022/10/14 04:10:09;;;;;;;60.20;31.80;;;;;;;8.21;88.34;98628.29;106407;1289;138298;-70
2022/10/14 04:12:39;;;;;;;54.20;30.30;;;;;;;8.23;88.64;98629.27;106669;1287;22972;-70
2022/10/14 04:15:18;;;;;;;51.80;28.10;;;;;;;8.25;88.44;98625.86;106741;1290;22138;-70
2022/10/14 04:18:09;;;;;;;49.90;27.80;;;;;;;8.26;88.43;98623.10;106701;1303;22922;-71
2022/10/14 04:20:37;;;;;;;52.40;29.10;;;;;;;8.29;88.37;98621.85;106700;1288;22063;-70
2022/10/14 04:23:04;;;;;;;55.20;30.50;;;;;;;8.31;88.47;98624.98;106407;1310;138479;-70
2022/10/14 04:25:32;;;;;;;50.10;30.80;;;;;;;8.33;88.37;98626.19;106773;1297;22527;-70
2022/10/14 04:28:02;;;;;;;54.40;30.10;;;;;;;8.35;88.40;98627.28;106371;1310;138407;-70
2022/10/14 04:30:40;;;;;;;48.80;29.10;;;;;;;8.37;88.33;98627.73;106449;1300;22267;-70
2022/10/14 04:33:08;;;;;;;54.50;30.40;;;;;;;8.37;88.33;98624.30;106460;1312;22169;-70
2022/10/14 04:35:35;;;;;;;53.20;27.80;;;;;;;8.37;88.35;98624.30;106396;1310;138228;-70
2022/10/14 04:38:02;;;;;;;54.40;28.40;;;;;;;8.37;88.12;98627.98;106370;1311;22249;-70
2022/10/14 04:40:30;;;;;;;56.50;30.00;;;;;;;8.33;88.33;98622.67;106283;1301;139439;-70
2022/10/14 04:42:57;;;;;;;56.70;29.10;;;;;;;8.33;88.41;98624.30;106473;1311;22182;-70
2022/10/14 04:45:31;;;;;;;53.80;30.70;;;;;;;8.34;88.41;98619.49;106695;1288;22848;-70
2022/10/14 04:48:01;;;;;;;51.90;30.10;;;;;;;8.36;88.52;98618.52;106429;1291;138113;-71
2022/10/14 04:50:27;;;;;;;49.50;30.70;;;;;;;8.37;88.68;98615.66;106484;1296;22062;-70
2022/10/14 04:53:26;;;;;;;58.90;30.50;;;;;;;8.38;88.69;98614.73;106333;1312;138390;-71
2022/10/14 04:56:03;;;;;;;60.50;32.40;;;;;;;8.41;88.92;98616.49;106419;1297;22303;-70
2022/10/14 04:58:33;;;;;;;62.50;33.10;;;;;;;8.44;88.84;98614.20;106195;1311;138727;-70
2022/10/14 05:01:01;;;;;;;56.50;32.30;;;;;;;8.45;88.68;98614.85;106618;1287;22148;-70
2022/10/14 05:03:34;;;;;;;67.50;34.90;;;;;;;8.48;88.63;98609.09;106469;1312;22281;-70
2022/10/14 05:06:02;;;;;;;61.60;34.70;;;;;;;8.51;88.66;98609.85;106348;1313;138254;-70
2022/10/14 05:08:29;;;;;;;65.20;36.90;;;;;;;8.53;88.54;98610.98;106510;1308;22191;-70
2022/10/14 05:10:59;;;;;;;61.90;33.40;;;;;;;8.54;88.68;98612.02;106268;1312;138423;-70
2022/10/14 05:13:35;;;;;;;67.20;36.10;;;;;;;8.56;88.78;98608.12;106421;1298;22134;-70
2022/10/14 05:16:06;;;;;;;69.00;37.30;;;;;;;8.58;88.64;98605.38;106405;1296;138470;-70
2022/10/14 05:18:33;;;;;;;67.10;38.70;;;;;;;8.59;88.58;98602.61;106282;1302;22213;-70
2022/10/14 05:21:11;;;;;;;69.10;38.20;;;;;;;8.62;88.87;98606.79;106636;1283;22949;-70
2022/10/14 05:23:51;;;;;;;67.90;32.90;;;;;;;8.63;88.67;98605.15;106355;1310;138758;-70
2022/10/14 05:26:18;;;;;;;72.00;31.70;;;;;;;8.62;88.36;98604.29;106656;1300;22134;-70
2022/10/14 05:28:45;;;;;;;57.90;30.70;;;;;;;8.56;88.18;98604.73;106329;1312;138424;-71
2022/10/14 05:31:13;;;;;;;54.70;29.60;;;;;;;8.51;88.42;98604.45;106807;1282;22064;-70
2022/10/14 05:33:46;;;;;;;60.50;31.90;;;;;;;8.53;88.86;98606.28;106286;1297;138474;-70
2022/10/14 05:36:13;;;;;;;53.60;30.30;;;;;;;8.57;88.89;98606.94;106321;1311;23061;-70
2022/10/14 05:38:40;;;;;;;62.80;33.40;;;;;;;8.62;89.06;98608.59;106435;1312;22974;-70
2022/10/14 05:41:08;;;;;;;61.10;31.20;;;;;;;8.67;89.06;98608.02;106365;1312;138418;-70
2022/10/14 05:43:36;;;;;;;57.90;30.70;;;;;;;8.70;88.94;98608.23;106484;1298;22081;-70
2022/10/14 05:46:05;;;;;;;56.50;30.80;;;;;;;8.75;89.09;98606.58;106380;1311;138533;-70
2022/10/14 05:48:36;;;;;;;53.90;30.80;;;;;;;8.79;89.04;98608.48;106742;1284;22073;-71
2022/10/14 05:51:04;;;;;;;51.20;29.20;;;;;;;8.82;88.89;98604.21;106783;1303;22067;-70
2022/10/14 05:53:33;;;;;;;49.20;29.50;;;;;;;8.87;88.96;98602.15;106228;1312;138208;-70
2022/10/14 05:56:09;;;;;;;54.20;31.20;;;;;;;8.88;88.82;98600.45;106505;1310;22175;-70
2022/10/14 05:58:37;;;;;;;68.80;36.60;;;;;;;8.88;88.66;98599.38;106599;1290;138516;-70
2022/10/14 06:01:08;;;;;;;61.30;33.30;;;;;;;8.87;88.39;98606.23;106408;1312;22882;-71
2022/10/14 06:03:38;;;;;;;61.50;30.80;;;;;;;8.87;88.59;98600.48;106489;1295;22095;-70
2022/10/14 06:06:06;;;;;;;58.70;31.90;;;;;;;8.95;89.33;98600.10;106418;1311;138683;-71
2022/10/14 06:08:33;;;;;;;55.30;30.00;;;;;;;9.03;88.60;98607.30;106803;1303;22062;-71
2022/10/14 06:11:03;;;;;;;63.20;35.10;;;;;;;9.06;88.19;98601.84;106441;1313;138652;-71
2022/10/14 06:13:30;;;;;;;67.40;36.50;;;;;;;9.09;87.71;98597.73;106780;1295;22393;-71
2022/10/14 06:16:04;;;;;;;58.40;33.10;;;;;;;9.08;87.34;98602.39;106392;1306;138418;-71
2022/10/14 06:18:32;;;;;;;59.90;33.70;;;;;;;9.09;87.62;98608.14;106507;1312;22118;-70
2022/10/14 06:21:00;;;;;;;49.90;29.40;;;;;;;9.16;87.69;98610.00;106528;1311;22271;-70
2022/10/14 06:23:27;;;;;;;54.80;27.90;;;;;;;9.16;86.97;98612.98;106626;1288;138404;-70
2022/10/14 06:25:54;;;;;;;48.90;28.30;;;;;;;9.17;87.18;98613.55;106530;1304;22246;-70
2022/10/14 06:28:21;;;;;;;51.80;27.30;;;;;;;9.20;86.96;98615.59;106447;1310;138455;-70
2022/10/14 06:30:50;;;;;;;58.20;30.10;;;;;;;9.22;87.13;98611.67;106823;1302;22068;-70
2022/10/14 06:33:17;;;;;;;50.10;28.50;;;;;;;9.25;86.92;98611.64;106511;1297;22113;-70
2022/10/14 06:35:45;;;;;;;48.80;26.10;;;;;;;9.25;86.67;98612.29;106648;1304;138389;-70
2022/10/14 06:38:12;;;;;;;46.50;28.00;;;;;;;9.25;86.72;98613.80;106499;1286;22111;-70
2022/10/14 06:40:39;;;;;;;52.70;29.70;;;;;;;9.27;86.88;98612.13;106351;1311;138200;-70
2022/10/14 06:43:06;;;;;;;53.70;28.70;;;;;;;9.32;87.07;98619.59;106696;1299;22242;-71
2022/10/14 06:45:33;;;;;;;48.70;28.60;;;;;;;9.35;86.73;98623.14;106503;1310;22279;-70
2022/10/14 06:48:00;;;;;;;49.80;28.80;;;;;;;9.35;86.73;98621.23;106412;1311;138701;-70
2022/10/14 06:50:27;;;;;;;48.40;30.60;;;;;;;9.30;86.71;98620.29;106524;1304;22255;-70
2022/10/14 06:52:53;;;;;;;54.20;31.00;;;;;;;9.28;86.97;98619.27;106406;1310;138155;-70
2022/10/14 06:55:20;;;;;;;58.10;31.80;;;;;;;9.31;87.14;98619.02;106580;1296;22353;-70
2022/10/14 06:57:47;;;;;;;56.50;32.60;;;;;;;9.36;87.48;98622.19;106732;1294;138464;-70
2022/10/14 07:00:15;;;;;;;65.70;34.50;;;;;;;9.43;87.70;98620.41;106591;1310;22144;-70
2022/10/14 07:02:43;;;;;;;58.50;34.70;;;;;;;9.51;87.56;98626.18;106841;1288;22115;-70
2022/10/14 07:05:10;;;;;;;64.70;36.90;;;;;;;9.57;87.83;98626.84;106419;1302;138601;-70
2022/10/14 07:07:37;;;;;;;60.80;36.70;;;;;;;9.65;87.85;98626.16;106525;1304;22205;-70
2022/10/14 07:10:04;;;;;;;61.30;35.50;;;;;;;9.73;87.93;98618.67;106396;1313;138430;-70
2022/10/14 07:12:31;;;;;;;65.90;37.30;;;;;;;9.79;87.70;98615.71;106524;1311;22308;-69
2022/10/14 07:14:58;;;;;;;64.70;37.10;;;;;;;9.86;87.85;98614.27;106549;1288;22954;-70
2022/10/14 07:17:25;;;;;;;59.40;35.50;;;;;;;9.95;87.99;98609.28;106489;1310;138253;-70
2022/10/14 07:19:52;;;;;;;67.80;38.30;;;;;;;10.05;87.93;98609.18;106624;1307;22102;-70
2022/10/14 07:22:19;;;;;;;69.70;39.30;;;;;;;10.14;87.51;98611.62;106747;1302;138844;-69
2022/10/14 07:24:46;;;;;;;68.10;38.80;;;;;;;10.25;87.39;98616.65;106873;1294;22292;-70
2022/10/14 07:27:14;;;;;;;63.40;38.60;;;;;;;10.37;87.31;98620.70;106862;1291;22283;-70
2022/10/14 07:29:42;;;;;;;65.40;38.70;;;;;;;10.50;87.23;98615.41;106506;1304;138395;-70
2022/10/14 07:32:08;;;;;;;61.70;38.00;;;;;;;10.63;87.25;98616.46;106867;1291;22095;-70
2022/10/14 07:34:35;;;;;;;63.00;36.40;;;;;;;10.75;86.79;98614.77;106736;1298;138607;-70
2022/10/14 07:37:03;;;;;;;67.50;38.70;;;;;;;10.87;86.31;98612.27;106567;1312;23018;-70
2022/10/14 07:39:30;;;;;;;61.60;36.70;;;;;;;10.99;86.61;98612.24;106564;1312;22360;-70
2022/10/14 07:41:56;;;;;;;60.40;34.90;;;;;;;11.12;86.33;98613.05;106435;1312;138410;-70
2022/10/14 07:44:23;;;;;;;62.80;36.30;;;;;;;11.21;86.25;98611.16;106502;1297;22338;-72
2022/10/14 07:46:50;;;;;;;62.90;35.50;;;;;;;11.33;86.30;98614.32;106505;1310;138395;-70
2022/10/14 07:49:21;;;;;;;56.60;34.00;;;;;;;11.45;85.64;98610.21;106855;1302;22236;-70
2022/10/14 07:51:48;;;;;;;51.00;30.90;;;;;;;11.58;85.51;98606.77;106768;1302;138500;-70
2022/10/14 07:54:19;;;;;;;49.90;30.00;;;;;;;11.72;84.77;98611.91;106618;1310;22253;-69
2022/10/14 07:56:49;;;;;;;46.40;27.60;;;;;;;11.84;84.31;98608.65;106529;1295;22064;-70
2022/10/14 07:59:18;;;;;;;44.70;28.90;;;;;;;11.97;83.81;98605.20;106446;1312;138603;-70
2022/10/14 08:01:46;;;;;;;45.70;27.10;;;;;;;12.08;83.29;98606.63;106820;1298;22177;-70
2022/10/14 08:04:13;;;;;;;43.70;28.10;;;;;;;12.16;82.41;98606.42;106698;1288;138662;-70
2022/10/14 08:06:41;;;;;;;46.70;28.60;;;;;;;12.25;82.32;98603.86;106868;1302;22075;-69
2022/10/14 08:09:10;;;;;;;49.60;29.60;;;;;;;12.37;82.16;98605.02;106641;1310;22151;-70
2022/10/14 08:11:37;;;;;;;46.70;29.20;;;;;;;12.48;81.88;98606.13;106767;1292;138379;-69
2022/10/14 08:14:05;;;;;;;48.00;30.80;;;;;;;12.58;81.43;98603.36;106607;1303;22289;-70
2022/10/14 08:16:34;;;;;;;49.40;30.10;;;;;;;12.69;81.33;98601.14;106348;1302;138515;-70
2022/10/14 08:19:09;;;;;;;48.60;30.70;;;;;;;12.83;81.02;98598.17;106552;1311;22155;-70
2022/10/14 08:21:36;;;;;;;49.80;30.80;;;;;;;12.95;80.69;98597.55;106549;1310;22802;-70
2022/10/14 08:24:03;;;;;;;51.80;31.70;;;;;;;13.05;80.52;98601.70;106439;1312;138193;-70
2022/10/14 08:26:33;;;;;;;49.10;30.20;;;;;;;13.16;80.11;98599.68;106807;1296;22087;-69
2022/10/14 08:29:04;;;;;;;49.20;30.90;;;;;;;13.26;79.39;98597.59;106721;1302;138640;-69
2022/10/14 08:31:32;;;;;;;53.10;30.90;;;;;;;13.30;79.07;98596.77;106571;1311;22254;-69
2022/10/14 08:33:59;;;;;;;52.20;30.90;;;;;;;13.35;78.78;98598.73;106434;1313;138704;-69
2022/10/14 08:36:26;;;;;;;49.30;29.40;;;;;;;13.39;78.67;98600.85;106545;1296;22108;-70
2022/10/14 08:38:53;;;;;;;54.50;30.10;;;;;;;13.40;78.37;98598.90;106565;1312;22125;-69
2022/10/14 08:41:34;;;;;;;51.80;30.60;;;;;;;13.41;78.31;98601.98;106457;1310;138389;-69
2022/10/14 08:44:21;;;;;;;52.40;31.00;;;;;;;13.41;77.91;98598.73;106844;1302;22047;-70
2022/10/14 08:46:56;;;;;;;50.20;30.60;;;;;;;13.38;77.73;98599.75;106429;1301;138300;-70
2022/10/14 08:49:48;;;;;;;48.50;30.50;;;;;;;13.37;77.57;98599.95;106578;1304;22897;-70
2022/10/14 08:52:38;;;;;;;57.10;31.30;;;;;;;13.37;77.45;98597.83;106442;1308;138525;-70
2022/10/14 08:55:17;;;;;;;53.60;30.70;;;;;;;13.40;77.48;98594.95;106571;1312;22722;-70
2022/10/14 08:57:51;;;;;;;47.30;29.40;;;;;;;13.45;77.53;98592.31;106735;1286;138621;-74
2022/10/14 09:00:19;;;;;;;49.60;29.30;;;;;;;13.51;77.42;98593.84;106568;1310;22403;-70
2022/10/14 09:02:49;;;;;;;53.40;29.30;;;;;;;13.58;77.16;98590.95;106839;1296;22085;-69
2022/10/14 09:05:20;;;;;;;57.00;30.60;;;;;;;13.67;77.01;98589.76;106440;1304;138599;-69
2022/10/14 09:07:50;;;;;;;46.60;29.90;;;;;;;13.78;76.79;98587.54;106568;1302;22086;-70
2022/10/14 09:10:39;;;;;;;52.90;31.10;;;;;;;13.90;76.64;98587.02;106473;1311;138592;-69
2022/10/14 09:13:35;;;;;;;51.80;29.20;;;;;;;14.03;76.48;98588.25;106551;1304;22105;-69
2022/10/14 09:16:20;;;;;;;51.30;29.80;;;;;;;14.20;76.26;98590.23;106724;1294;138704;-69
2022/10/14 09:18:52;;;;;;;46.90;27.70;;;;;;;14.31;75.97;98585.28;106834;1302;24369;-70
2022/10/14 09:21:30;;;;;;;46.30;26.50;;;;;;;14.39;75.64;98588.78;106569;1312;22307;-69
2022/10/14 09:24:11;;;;;;;42.80;26.40;;;;;;;14.48;74.57;98590.69;106727;1289;138322;-69
2022/10/14 09:26:43;;;;;;;44.00;25.80;;;;;;;14.57;74.04;98594.30;106818;1288;22370;-70
2022/10/14 09:29:24;;;;;;;41.70;25.70;;;;;;;14.65;73.62;98594.06;106433;1313;138847;-70
2022/10/14 09:31:54;;;;;;;42.30;25.50;;;;;;;14.75;73.51;98592.20;106545;1311;22087;-69
2022/10/14 09:34:31;;;;;;;43.50;24.80;;;;;;;14.93;73.20;98599.98;106720;1291;138742;-69
2022/10/14 09:37:18;;;;;;;41.40;24.80;;;;;;;15.07;72.47;98596.17;106713;1294;22830;-70
2022/10/14 09:39:45;;;;;;;36.60;22.60;;;;;;;15.20;71.94;98593.73;106726;1290;138601;-70
2022/10/14 09:42:19;;;;;;;39.80;21.70;;;;;;;15.33;71.62;98590.73;106842;1302;22302;-69
2022/10/14 09:45:04;;;;;;;37.90;22.60;;;;;;;15.46;71.45;98591.67;106521;1310;22077;-71
2022/10/14 09:47:36;;;;;;;38.20;22.90;;;;;;;15.59;70.95;98587.70;106428;1302;138169;-69
2022/10/14 09:50:09;;;;;;;36.10;23.80;;;;;;;15.67;70.64;98589.70;106562;1313;22052;-69
2022/10/14 09:52:37;;;;;;;40.00;22.60;;;;;;;15.77;70.65;98587.79;106713;1303;137686;-70
2022/10/14 09:55:17;;;;;;;38.10;22.60;;;;;;;15.85;70.23;98580.25;106840;1303;22118;-70
2022/10/14 09:57:44;;;;;;;41.20;22.80;;;;;;;15.97;69.46;98582.12;106416;1304;137824;-72
2022/10/14 10:00:26;;;;;;;41.90;23.70;;;;;;;16.03;68.79;98581.11;106861;1302;22192;-69
2022/10/14 10:02:54;;;;;;;38.50;23.70;;;;;;;16.07;68.77;98579.73;106869;1302;22143;-69
2022/10/14 10:05:30;;;;;;;32.80;21.60;;;;;;;16.11;68.59;98577.09;106762;1298;138094;-69
2022/10/14 10:08:14;;;;;;;33.90;21.40;;;;;;;16.14;68.37;98576.05;106533;1298;22855;-70
2022/10/14 10:10:56;;;;;;;34.50;21.20;;;;;;;16.17;67.97;98575.92;106714;1290;137898;-69
2022/10/14 10:13:39;;;;;;;36.40;20.50;;;;;;;16.14;67.62;98574.61;106816;1285;22862;-69
2022/10/14 10:16:17;;;;;;;30.10;19.20;;;;;;;16.10;67.18;98576.04;106723;1302;137970;-69
2022/10/14 10:18:44;;;;;;;34.60;19.60;;;;;;;16.07;66.39;98578.41;106848;1299;22175;-69
2022/10/14 10:21:23;;;;;;;34.40;20.10;;;;;;;16.08;66.74;98575.11;106878;1303;22200;-69
2022/10/14 10:23:56;;;;;;;34.10;20.50;;;;;;;16.12;66.92;98574.07;106495;1310;138262;-69
2022/10/14 10:26:32;;;;;;;39.70;20.60;;;;;;;16.18;66.88;98571.73;106886;1303;22312;-69
2022/10/14 10:29:02;;;;;;;36.30;20.30;;;;;;;16.25;67.19;98573.15;106718;1297;137753;-70
2022/10/14 10:31:48;;;;;;;34.70;21.00;;;;;;;16.31;66.85;98567.97;106829;1291;23053;-70
2022/10/14 10:34:49;;;;;;;30.30;18.40;;;;;;;16.40;65.85;98563.04;106736;1302;138620;-69
2022/10/14 10:37:16;;;;;;;34.10;20.70;;;;;;;16.51;65.20;98560.19;106548;1313;22140;-69
2022/10/14 10:39:50;;;;;;;30.60;19.60;;;;;;;16.62;65.25;98560.70;106593;1299;22118;-69
2022/10/14 10:42:31;;;;;;;32.30;19.20;;;;;;;16.72;64.95;98557.06;106633;1310;22120;-70
2022/10/14 10:45:16;;;;;;;33.50;20.40;;;;;;;16.79;64.69;98558.03;106858;1303;22896;-69
2022/10/14 10:47:56;;;;;;;26.70;18.80;;;;;;;16.87;64.72;98555.48;106472;1310;137782;-69
2022/10/14 10:50:46;;;;;;;26.70;17.30;;;;;;;16.94;64.38;98562.42;106796;1302;22310;-69
2022/10/14 10:53:28;;;;;;;26.30;18.00;;;;;;;16.94;63.50;98554.77;106437;1313;137881;-69
2022/10/14 10:56:04;;;;;;;30.20;17.70;;;;;;;16.92;63.53;98553.68;106570;1297;22168;-69
2022/10/14 10:58:41;;;;;;;30.80;17.70;;;;;;;16.94;63.76;98552.74;106710;1293;138160;-69
2022/10/14 11:01:08;;;;;;;31.10;18.40;;;;;;;16.95;63.72;98553.84;106561;1312;22329;-69
2022/10/14 11:04:01;;;;;;;33.20;18.20;;;;;;;16.92;63.51;98549.51;106817;1302;22272;-69
2022/10/14 11:13:22;;;;;;;30.10;17.80;;;;;;;17.14;63.21;98539.18;106574;1313;22822;-69
2022/10/14 11:15:56;;;;;;;32.70;18.90;;;;;;;17.24;63.09;98538.61;106853;1294;22744;-69
2022/10/14 11:18:50;;;;;;;26.30;18.60;;;;;;;17.37;63.03;98534.50;106815;1291;23175;-69
2022/10/14 11:21:42;;;;;;;30.80;18.40;;;;;;;17.55;62.35;98535.06;106971;1303;22075;-69
2022/10/14 11:24:20;;;;;;;35.40;17.40;;;;;;;17.65;61.95;98532.05;106477;1313;138161;-69
2022/10/14 11:27:07;;;;;;;27.80;17.30;;;;;;;17.78;61.98;98524.81;106667;1310;22094;-69
2022/10/14 11:29:53;;;;;;;32.90;17.30;;;;;;;17.89;61.88;98526.84;106523;1302;138688;-69
2022/10/14 11:32:23;;;;;;;29.00;16.20;;;;;;;17.92;61.67;98523.44;106577;1305;22098;-69
2022/10/14 11:35:35;;;;;;;36.30;16.20;;;;;;;17.93;61.05;98520.69;106743;1297;138329;-70
2022/10/14 11:38:34;;;;;;;27.80;17.60;;;;;;;17.95;61.22;98522.73;105794;1317;22279;-69
2022/10/14 11:41:19;;;;;;;25.20;15.80;;;;;;;17.92;60.74;98521.52;106192;1297;137668;-69
2022/10/14 11:43:51;;;;;;;28.90;16.00;;;;;;;17.79;60.98;98513.34;106405;1308;22177;-69